Time;durP1;ratioP1;P1;durP2;ratioP2;P2;SDS_P1;SDS_P2;PMS_P1;PMS_P2;Temp;Humidity;BMP_temperature;BMP_pressure;BME280_temperature;BME280_humidity;BME280_pressure;Samples;Min_cycle;Max_cycle;Signal;HPM_P1;HPM_P2
2024/03/10 00:01:20;;;;;;;6.85;3.85;;;;;;;18.75;40.87;99632.50;5006847;28;20033;-65
2024/03/10 00:03:46;;;;;;;6.10;3.70;;;;;;;18.74;40.77;99630.00;4999371;28;20622;-65
2024/03/10 00:06:11;;;;;;;6.60;4.20;;;;;;;18.71;40.72;99630.31;5007726;28;20034;-65
2024/03/10 00:08:36;;;;;;;6.30;4.15;;;;;;;18.70;41.12;99637.41;5001167;28;20044;-66
2024/03/10 00:11:02;;;;;;;6.15;4.20;;;;;;;18.80;40.83;99653.13;4998991;28;20430;-65
2024/03/10 00:13:27;;;;;;;6.25;4.10;;;;;;;18.67;40.79;99646.50;4998973;28;20030;-65
2024/03/10 00:15:53;;;;;;;6.13;4.00;;;;;;;18.66;40.73;99646.66;4999225;28;20033;-66
2024/03/10 00:18:18;;;;;;;6.97;4.45;;;;;;;18.65;40.90;99648.44;5004798;28;20511;-66
2024/03/10 00:20:44;;;;;;;6.93;4.28;;;;;;;18.72;40.75;99664.47;5005714;28;20034;-67
2024/03/10 00:23:10;;;;;;;7.07;4.30;;;;;;;18.74;40.65;99673.09;5014114;28;20025;-66
2024/03/10 00:25:35;;;;;;;6.90;4.32;;;;;;;18.73;40.84;99660.84;5015271;28;20029;-67
2024/03/10 00:28:01;;;;;;;6.38;4.35;;;;;;;18.64;40.69;99648.59;5012223;28;20064;-66
2024/03/10 00:30:26;;;;;;;6.80;4.40;;;;;;;18.70;40.45;99665.63;5012060;28;20409;-67
2024/03/10 00:32:51;;;;;;;6.43;4.38;;;;;;;18.71;40.67;99678.66;5014210;28;20040;-65
2024/03/10 00:35:18;;;;;;;7.20;5.18;;;;;;;18.68;40.55;99679.81;5018712;28;20099;-68
2024/03/10 00:37:43;;;;;;;6.85;4.40;;;;;;;18.57;40.24;99652.88;5022259;28;20030;-66
2024/03/10 00:40:08;;;;;;;8.63;4.68;;;;;;;18.66;40.73;99658.03;5021159;28;20033;-65
2024/03/10 00:42:34;;;;;;;6.50;4.22;;;;;;;18.70;40.47;99657.72;5022033;28;20056;-67
2024/03/10 00:44:59;;;;;;;7.28;4.85;;;;;;;18.67;40.54;99635.94;5021693;28;20030;-65
2024/03/10 00:47:25;;;;;;;6.90;4.78;;;;;;;18.58;40.50;99609.66;5007282;28;20938;-66
2024/03/10 00:49:50;;;;;;;6.57;4.53;;;;;;;18.56;40.56;99601.06;5006105;28;20049;-66
2024/03/10 00:52:16;;;;;;;8.30;4.65;;;;;;;18.63;40.48;99610.03;5000749;28;20033;-67
2024/03/10 00:54:41;;;;;;;6.82;4.60;;;;;;;18.54;40.62;99601.22;5001936;28;20095;-67
2024/03/10 00:57:06;;;;;;;6.97;4.60;;;;;;;18.49;40.22;99601.69;5002368;28;20041;-67
2024/03/10 00:59:32;;;;;;;7.68;4.70;;;;;;;18.52;40.53;99603.19;5002090;28;20034;-65
2024/03/10 01:01:58;;;;;;;6.53;4.85;;;;;;;18.40;40.40;99591.25;5001065;28;20034;-65
2024/03/10 01:04:23;;;;;;;7.28;4.72;;;;;;;18.57;40.33;99626.47;5002167;28;20049;-66
2024/03/10 01:06:49;;;;;;;7.80;5.43;;;;;;;18.49;40.44;99606.16;5007750;28;20410;-67
2024/03/10 01:09:18;;;;;;;6.97;4.60;;;;;;;18.59;40.25;99621.88;5002167;28;20104;-65
2024/03/10 01:11:43;;;;;;;8.45;4.47;;;;;;;18.28;40.17;99573.06;5008650;28;20133;-67
2024/03/10 01:14:11;;;;;;;6.63;4.45;;;;;;;18.56;40.49;99615.06;5014087;28;20044;-67
2024/03/10 01:16:37;;;;;;;6.97;4.70;;;;;;;18.56;40.44;99611.63;5007615;28;20040;-65
2024/03/10 01:19:02;;;;;;;8.57;5.00;;;;;;;18.43;39.97;99596.22;5005856;28;20045;-64
2024/03/10 01:21:27;;;;;;;7.43;4.65;;;;;;;18.57;40.21;99615.94;5012022;28;20033;-67
2024/03/10 01:23:53;;;;;;;7.75;4.88;;;;;;;18.48;39.76;99599.22;5017085;28;20355;-65
2024/03/10 01:26:19;;;;;;;7.10;4.90;;;;;;;18.53;40.12;99604.84;5021195;28;20246;-67
2024/03/10 01:28:44;;;;;;;6.20;4.10;;;;;;;18.48;40.08;99605.34;5020537;28;20506;-66
2024/03/10 01:31:10;;;;;;;6.78;4.28;;;;;;;18.39;40.04;99587.81;5020712;28;20029;-67
2024/03/10 01:33:36;;;;;;;6.03;4.32;;;;;;;18.51;40.21;99606.81;5014875;28;20029;-66
2024/03/10 01:36:04;;;;;;;7.72;4.70;;;;;;;18.49;40.00;99587.69;4999143;28;20030;-68
2024/03/10 01:38:30;;;;;;;7.15;4.65;;;;;;;18.40;40.01;99567.53;5001068;28;20062;-66
2024/03/10 01:40:57;;;;;;;6.72;4.40;;;;;;;18.41;40.11;99570.00;5002012;28;20117;-66
2024/03/10 01:43:22;;;;;;;6.82;4.50;;;;;;;18.49;40.02;99579.78;5000396;28;20033;-69
2024/03/10 01:45:53;;;;;;;6.05;4.55;;;;;;;18.48;40.03;99576.31;4999612;28;20033;-66
2024/03/10 01:48:19;;;;;;;8.00;5.15;;;;;;;18.45;39.88;99571.34;5001850;28;20042;-66
2024/03/10 01:50:45;;;;;;;6.93;4.68;;;;;;;18.47;39.87;99577.28;5019995;28;20041;-66
2024/03/10 01:53:10;;;;;;;7.47;4.88;;;;;;;18.41;39.77;99558.63;5020816;28;20034;-66
2024/03/10 01:55:37;;;;;;;6.85;4.50;;;;;;;18.36;39.92;99551.19;5002936;28;20061;-67
2024/03/10 01:58:03;;;;;;;5.97;4.20;;;;;;;18.47;39.81;99556.19;5010060;28;20423;-68
2024/03/10 02:00:28;;;;;;;6.82;4.65;;;;;;;18.36;39.94;99538.00;5005421;28;20041;-67
2024/03/10 02:02:54;;;;;;;6.78;4.47;;;;;;;18.43;39.74;99551.38;4999871;28;20087;-67
2024/03/10 02:05:22;;;;;;;6.88;5.07;;;;;;;18.31;39.60;99530.56;5000940;28;20109;-66
2024/03/10 02:07:48;;;;;;;6.78;4.63;;;;;;;18.43;39.87;99548.75;5000684;28;20041;-66
2024/03/10 02:10:13;;;;;;;7.03;4.50;;;;;;;18.27;39.80;99526.56;5004689;28;20022;-68
2024/03/10 02:12:40;;;;;;;7.00;4.60;;;;;;;18.41;39.72;99546.25;5001589;28;20049;-66
2024/03/10 02:15:06;;;;;;;8.18;4.93;;;;;;;18.34;39.75;99532.06;5008135;28;20057;-68
2024/03/10 02:17:32;;;;;;;6.80;4.50;;;;;;;18.22;39.79;99517.50;5018292;28;20077;-67
2024/03/10 02:19:57;;;;;;;6.45;4.07;;;;;;;18.36;39.73;99532.72;5027756;28;20121;-67
2024/03/10 02:22:24;;;;;;;7.03;4.80;;;;;;;18.24;39.81;99508.41;5001595;28;20045;-66
2024/03/10 02:24:52;;;;;;;5.97;4.32;;;;;;;18.36;39.78;99514.25;5002592;28;20145;-66
2024/03/10 02:27:18;;;;;;;6.90;4.10;;;;;;;18.31;39.68;99506.00;5015526;28;20076;-67
2024/03/10 02:30:00;;;;;;;7.20;4.78;;;;;;;18.35;39.62;99509.97;5019869;28;20116;-67
2024/03/10 02:48:53;;;;;;;6.32;4.45;;;;;;;18.25;39.49;99498.72;4999553;28;20100;-66
2024/03/10 02:51:19;;;;;;;6.63;4.18;;;;;;;18.29;39.56;99511.44;5000238;28;20037;-66
2024/03/10 02:53:46;;;;;;;6.60;4.47;;;;;;;18.21;39.37;99500.81;4998210;28;20498;-67
2024/03/10 02:56:13;;;;;;;7.22;4.88;;;;;;;18.31;39.42;99527.91;5000003;28;20076;-66
2024/03/10 02:58:39;;;;;;;6.22;4.63;;;;;;;18.30;39.58;99520.97;4999298;28;20029;-68
2024/03/10 03:01:09;;;;;;;6.05;4.13;;;;;;;18.23;39.26;99498.88;4999542;28;20038;-66
2024/03/10 03:03:34;;;;;;;6.72;4.55;;;;;;;18.27;39.37;99512.56;4999439;28;20030;-67
2024/03/10 03:06:00;;;;;;;6.18;4.35;;;;;;;18.15;39.24;99490.94;4999754;28;20034;-66
2024/03/10 03:08:25;;;;;;;6.25;4.10;;;;;;;18.19;39.28;99496.72;4999374;28;20805;-67
2024/03/10 03:10:51;;;;;;;6.68;4.60;;;;;;;18.20;39.35;99480.72;5009013;28;20033;-67
2024/03/10 03:13:17;;;;;;;6.25;4.50;;;;;;;18.25;39.19;99512.72;5019426;28;20029;-66
2024/03/10 03:15:42;;;;;;;6.93;4.60;;;;;;;18.23;39.31;99490.13;5011883;28;20036;-67
2024/03/10 03:18:08;;;;;;;6.68;4.72;;;;;;;18.09;39.86;99467.81;5011006;28;20513;-67
2024/03/10 03:20:34;;;;;;;6.40;4.40;;;;;;;18.25;39.18;99496.91;5018947;28;20448;-68
2024/03/10 03:23:02;;;;;;;7.07;4.75;;;;;;;18.11;39.40;99471.94;5009506;28;20468;-68
2024/03/10 03:25:28;;;;;;;6.53;4.53;;;;;;;18.12;39.32;99499.16;5012545;28;20037;-66
2024/03/10 03:27:54;;;;;;;6.57;4.18;;;;;;;18.22;39.14;99517.50;5018251;28;20048;-66
2024/03/10 03:30:20;;;;;;;6.00;4.38;;;;;;;18.15;39.00;99514.66;5018956;28;20029;-67
2024/03/10 03:32:47;;;;;;;6.22;4.43;;;;;;;18.16;38.95;99510.22;5018844;28;20140;-67
2024/03/10 03:35:15;;;;;;;6.15;4.07;;;;;;;18.22;38.87;99522.75;5018896;28;20457;-67
2024/03/10 03:37:41;;;;;;;6.38;4.45;;;;;;;18.15;38.75;99505.91;5001908;28;20108;-68
2024/03/10 03:40:07;;;;;;;7.10;4.40;;;;;;;18.22;39.04;99517.50;5006138;28;20121;-67
2024/03/10 03:42:35;;;;;;;5.63;4.00;;;;;;;18.17;39.06;99496.88;5004142;28;20112;-67
2024/03/10 03:45:04;;;;;;;7.15;4.30;;;;;;;18.08;39.11;99481.97;5013665;28;20030;-66
2024/03/10 03:47:29;;;;;;;7.22;4.82;;;;;;;18.18;39.16;99498.50;5012663;28;20036;-67
2024/03/10 03:49:55;;;;;;;6.38;4.45;;;;;;;18.12;39.33;99499.16;5002032;28;20045;-68
2024/03/10 03:52:20;;;;;;;6.63;4.35;;;;;;;18.13;39.09;99492.88;5009379;28;20033;-68
2024/03/10 03:54:46;;;;;;;7.22;4.85;;;;;;;18.18;38.91;99500.31;5007239;28;21318;-67
2024/03/10 03:57:11;;;;;;;7.50;4.47;;;;;;;17.91;39.11;99455.56;5012932;28;21248;-67
2024/03/10 03:59:39;;;;;;;6.60;4.10;;;;;;;18.08;39.12;99480.16;5010120;28;20037;-67
2024/03/10 04:02:05;;;;;;;7.20;4.35;;;;;;;18.15;39.01;99492.72;5008539;28;20025;-67
2024/03/10 04:04:31;;;;;;;7.60;4.07;;;;;;;18.17;39.10;99490.78;5002810;28;20042;-66
2024/03/10 04:06:57;;;;;;;7.05;4.75;;;;;;;18.08;38.98;99481.97;5012833;28;20040;-68
2024/03/10 04:09:22;;;;;;;6.15;4.70;;;;;;;18.09;39.03;99484.47;5011806;28;20475;-68
2024/03/10 04:11:47;;;;;;;6.45;4.60;;;;;;;18.06;39.08;99479.50;5016258;28;20462;-66
2024/03/10 04:14:13;;;;;;;6.53;4.55;;;;;;;18.06;39.13;99476.88;5008686;28;20069;-67
2024/03/10 04:16:39;;;;;;;6.55;4.50;;;;;;;18.12;38.98;99486.78;5006818;28;20045;-67
2024/03/10 04:19:04;;;;;;;7.85;4.97;;;;;;;18.06;39.19;99462.88;5010516;28;20052;-66
2024/03/10 04:21:30;;;;;;;7.70;4.75;;;;;;;18.07;38.77;99473.25;5009577;28;20041;-65
2024/03/10 04:23:56;;;;;;;6.10;4.10;;;;;;;18.03;39.17;99461.38;5006496;28;20062;-68
2024/03/10 04:26:23;;;;;;;6.38;4.20;;;;;;;18.00;38.88;99455.59;5019258;28;20037;-66
2024/03/10 04:28:49;;;;;;;7.32;4.82;;;;;;;17.97;38.79;99451.44;5021802;28;20124;-67
2024/03/10 04:31:16;;;;;;;6.63;4.53;;;;;;;18.06;38.83;99462.88;5017030;28;20116;-67
2024/03/10 04:33:42;;;;;;;6.70;4.25;;;;;;;18.15;38.75;99477.75;5016565;28;20034;-67
2024/03/10 04:36:08;;;;;;;6.45;4.70;;;;;;;18.03;38.69;99458.72;5009573;28;20096;-66
2024/03/10 04:38:34;;;;;;;5.97;4.40;;;;;;;18.09;38.83;99458.09;5017422;28;20028;-67
2024/03/10 04:40:59;;;;;;;6.55;4.50;;;;;;;18.09;38.91;99463.38;5000443;28;20030;-67
2024/03/10 04:43:24;;;;;;;6.45;4.25;;;;;;;18.10;38.62;99462.41;5002442;28;20029;-66
2024/03/10 04:45:53;;;;;;;6.35;4.43;;;;;;;18.04;38.84;99452.47;5001258;28;20439;-68
2024/03/10 04:48:18;;;;;;;7.43;4.60;;;;;;;18.09;38.89;99457.28;4999928;28;20038;-67
2024/03/10 04:50:44;;;;;;;7.63;4.93;;;;;;;18.00;38.70;99451.13;5000817;28;20044;-66
2024/03/10 04:53:10;;;;;;;6.47;4.05;;;;;;;18.02;38.76;99445.69;5014590;28;20556;-66
2024/03/10 04:55:35;;;;;;;7.32;4.85;;;;;;;18.09;38.66;99459.91;5019061;28;20045;-66
2024/03/10 04:58:00;;;;;;;5.95;4.38;;;;;;;18.10;38.22;99459.75;5013530;28;20515;-67
2024/03/10 05:00:26;;;;;;;6.30;4.03;;;;;;;17.95;38.58;99432.34;5013942;28;20087;-67
2024/03/10 05:02:51;;;;;;;6.53;4.60;;;;;;;18.00;38.60;99429.22;5008325;28;20083;-66
2024/03/10 05:05:17;;;;;;;7.05;4.40;;;;;;;18.03;38.88;99437.63;5008850;28;20041;-69
2024/03/10 05:07:42;;;;;;;6.97;4.38;;;;;;;18.06;38.71;99444.41;5011487;28;20037;-67
2024/03/10 05:10:08;;;;;;;5.70;4.00;;;;;;;17.94;38.76;99423.59;5012611;28;20143;-66
2024/03/10 05:12:35;;;;;;;6.80;4.47;;;;;;;17.94;38.87;99425.41;5020662;28;20029;-66
2024/03/10 05:15:02;;;;;;;7.13;4.40;;;;;;;17.92;38.75;99430.81;5001948;28;20030;-68
2024/03/10 05:17:29;;;;;;;6.05;4.22;;;;;;;17.99;39.02;99440.75;5018951;28;20029;-68
2024/03/10 05:19:54;;;;;;;6.78;5.03;;;;;;;17.98;38.69;99437.28;5019932;28;20033;-67
2024/03/10 05:22:20;;;;;;;6.05;4.13;;;;;;;17.94;38.77;99438.56;5019340;28;20045;-66
2024/03/10 05:24:45;;;;;;;6.68;4.70;;;;;;;17.95;38.96;99440.25;5002316;28;20038;-66
2024/03/10 05:27:10;;;;;;;6.13;4.10;;;;;;;18.00;38.80;99439.78;5016597;28;20030;-67
2024/03/10 05:29:36;;;;;;;6.63;4.35;;;;;;;17.97;38.88;99426.91;5000370;28;20034;-66
2024/03/10 05:32:05;;;;;;;6.53;4.82;;;;;;;17.98;38.82;99434.66;5000567;28;20036;-68
2024/03/10 05:34:32;;;;;;;6.30;4.20;;;;;;;17.88;38.90;99420.75;5006956;28;20487;-67
2024/03/10 05:36:59;;;;;;;6.18;4.13;;;;;;;18.03;38.75;99445.53;5019581;28;20064;-66
2024/03/10 05:39:24;;;;;;;7.00;4.63;;;;;;;17.87;38.75;99422.53;5003371;28;20061;-68
2024/03/10 05:41:49;;;;;;;8.25;4.35;;;;;;;17.90;38.99;99435.44;5001302;28;20125;-67
2024/03/10 05:44:14;;;;;;;6.07;4.03;;;;;;;17.94;38.77;99442.06;5019459;28;20037;-66
2024/03/10 05:46:41;;;;;;;6.20;4.20;;;;;;;17.88;38.94;99426.88;5009032;28;20375;-68
2024/03/10 05:49:07;;;;;;;7.50;4.60;;;;;;;18.00;38.67;99443.22;4991295;28;231002;-68
2024/03/10 05:51:32;;;;;;;7.13;4.53;;;;;;;17.93;38.74;99426.41;4991989;28;20562;-67
2024/03/10 05:53:57;;;;;;;5.75;4.25;;;;;;;17.94;38.66;99428.88;5001871;28;20124;-66
2024/03/10 05:56:23;;;;;;;5.78;4.13;;;;;;;17.76;38.68;99401.72;5004702;28;20068;-67
2024/03/10 05:58:51;;;;;;;6.28;4.13;;;;;;;17.92;38.58;99433.47;5011132;28;20116;-66
2024/03/10 06:01:23;;;;;;;7.03;4.80;;;;;;;17.89;38.68;99433.78;5009528;28;20037;-67
2024/03/10 06:03:51;;;;;;;6.38;4.30;;;;;;;17.97;38.70;99446.16;5002598;28;20029;-66
2024/03/10 06:06:17;;;;;;;6.25;4.10;;;;;;;17.83;38.57;99423.84;5011733;28;20491;-67
2024/03/10 06:08:42;;;;;;;5.35;3.90;;;;;;;17.98;38.93;99449.66;5019275;28;20247;-67
2024/03/10 06:11:08;;;;;;;6.03;4.00;;;;;;;17.90;38.99;99437.25;5020022;28;20494;-66
2024/03/10 06:13:33;;;;;;;5.85;3.70;;;;;;;17.98;39.10;99450.47;5020319;28;20974;-67
2024/03/10 06:15:58;;;;;;;5.72;3.95;;;;;;;17.92;39.06;99448.47;5015625;28;20030;-66
2024/03/10 06:25:22;;;;;;;6.32;4.00;;;;;;;17.97;39.03;99446.16;5008507;28;20478;-67
2024/03/10 06:26:37;;;;;;;4.75;3.00;;;;;;;17.80;39.27;99407.50;5007429;28;20087;-66
2024/03/10 06:29:02;;;;;;;5.45;3.38;;;;;;;18.08;39.32;99451.16;5000021;28;20029;-67
2024/03/10 06:31:27;;;;;;;5.05;3.33;;;;;;;18.11;39.38;99450.84;5008903;28;20406;-66
2024/03/10 06:33:53;;;;;;;5.32;3.20;;;;;;;17.97;39.33;99421.63;5014845;28;20034;-67
2024/03/10 06:36:19;;;;;;;5.28;3.08;;;;;;;18.14;39.15;99441.81;5009882;28;20038;-67
2024/03/10 06:38:45;;;;;;;4.88;3.10;;;;;;;18.19;39.13;99447.44;5000765;28;20052;-67
2024/03/10 06:41:11;;;;;;;4.80;3.05;;;;;;;18.12;39.12;99439.34;5017802;28;20067;-66
2024/03/10 06:43:39;;;;;;;5.20;3.30;;;;;;;18.19;39.23;99443.97;5019461;28;20134;-68
2024/03/10 06:46:08;;;;;;;5.22;3.20;;;;;;;18.27;39.11;99454.53;5019495;28;20480;-66
2024/03/10 06:48:34;;;;;;;4.80;2.92;;;;;;;18.19;39.16;99428.16;5019874;28;20057;-67
2024/03/10 06:51:01;;;;;;;4.85;3.25;;;;;;;18.19;39.23;99425.50;5018540;28;20394;-67
2024/03/10 06:53:27;;;;;;;4.97;3.20;;;;;;;18.27;39.11;99444.00;5019263;28;20063;-66
2024/03/10 06:55:54;;;;;;;5.03;3.03;;;;;;;18.26;39.14;99437.91;5019746;28;20025;-68
2024/03/10 06:58:19;;;;;;;5.20;3.50;;;;;;;18.27;39.22;99436.09;5009938;28;20026;-66
2024/03/10 07:00:45;;;;;;;5.20;3.20;;;;;;;18.24;39.02;99428.50;5011143;28;20026;-67
2024/03/10 07:03:11;;;;;;;5.28;2.97;;;;;;;18.37;39.27;99447.31;5003051;28;20053;-67
2024/03/10 07:05:39;;;;;;;5.05;3.13;;;;;;;18.23;39.03;99422.41;5000232;28;20038;-66
2024/03/10 07:08:07;;;;;;;5.57;2.97;;;;;;;18.38;38.95;99456.88;4999635;28;20599;-66
2024/03/10 07:10:32;;;;;;;5.05;3.25;;;;;;;18.39;39.11;99453.28;5012346;28;20025;-69
2024/03/10 07:12:57;;;;;;;4.45;2.67;;;;;;;18.37;39.00;99444.69;5007421;28;21496;-67
2024/03/10 07:15:23;;;;;;;5.30;2.92;;;;;;;18.31;39.13;99435.59;5014437;28;20571;-66
2024/03/10 07:17:48;;;;;;;4.80;2.85;;;;;;;18.34;39.13;99445.03;5011830;28;20118;-67
2024/03/10 07:20:13;;;;;;;5.15;2.90;;;;;;;18.40;39.32;99443.53;5012247;28;20029;-67
2024/03/10 07:22:41;;;;;;;4.47;2.58;;;;;;;18.40;39.12;99444.34;5004227;28;20037;-66
2024/03/10 07:25:08;;;;;;;4.57;2.53;;;;;;;18.41;39.02;99450.47;5006033;28;20133;-66
2024/03/10 07:27:34;;;;;;;5.68;3.20;;;;;;;18.40;39.24;99443.53;5019104;28;20036;-67
2024/03/10 07:29:59;;;;;;;5.03;2.90;;;;;;;18.29;39.13;99420.91;5011209;28;20026;-66
2024/03/10 07:32:26;;;;;;;4.38;2.60;;;;;;;18.32;39.35;99433.78;5015161;28;20492;-67
2024/03/10 07:34:52;;;;;;;4.38;2.85;;;;;;;18.40;39.24;99433.00;5011042;28;20030;-66
2024/03/10 07:37:17;;;;;;;5.15;2.90;;;;;;;18.30;39.27;99414.66;4999905;28;20065;-67
2024/03/10 07:39:42;;;;;;;4.43;2.50;;;;;;;18.40;39.10;99443.53;5005830;28;20552;-67
2024/03/10 07:42:09;;;;;;;4.47;2.60;;;;;;;18.39;39.17;99448.00;5011182;28;20312;-67
2024/03/10 07:44:35;;;;;;;4.85;2.92;;;;;;;18.29;39.20;99434.09;5005375;28;20041;-67
2024/03/10 07:47:00;;;;;;;4.88;3.17;;;;;;;18.31;39.22;99435.59;4999416;28;20555;-67
2024/03/10 07:49:26;;;;;;;4.93;2.90;;;;;;;18.37;39.26;99449.13;5003256;28;20102;-68
2024/03/10 07:51:51;;;;;;;4.88;2.83;;;;;;;18.32;39.26;99452.25;5010704;28;20041;-66
2024/03/10 07:54:16;;;;;;;4.97;2.92;;;;;;;18.40;39.19;99460.19;5006452;28;20095;-67
2024/03/10 07:56:42;;;;;;;5.40;2.80;;;;;;;18.24;39.32;99445.13;5002471;28;20030;-67
2024/03/10 07:59:08;;;;;;;4.63;2.75;;;;;;;18.38;39.24;99469.25;4999543;28;20081;-67
2024/03/10 08:01:33;;;;;;;4.63;3.00;;;;;;;18.41;39.42;99477.69;5002941;28;20391;-67
2024/03/10 08:03:58;;;;;;;4.68;2.97;;;;;;;18.31;39.22;99469.06;5015091;28;20029;-67
2024/03/10 08:06:25;;;;;;;5.20;2.80;;;;;;;18.30;39.17;99456.88;5014755;28;20034;-66
2024/03/10 08:08:52;;;;;;;4.82;2.95;;;;;;;18.37;39.12;99464.97;5007734;28;20337;-67
2024/03/10 08:11:17;;;;;;;4.88;2.95;;;;;;;18.30;39.14;99451.59;5017703;28;20033;-67
2024/03/10 08:13:44;;;;;;;4.72;2.80;;;;;;;18.30;39.17;99460.31;5013717;28;20022;-65
2024/03/10 08:16:10;;;;;;;4.82;2.80;;;;;;;18.29;39.30;99449.94;5009950;28;20026;-67
2024/03/10 08:18:35;;;;;;;5.30;3.20;;;;;;;18.38;39.21;99464.81;5004578;28;20060;-67
2024/03/10 08:21:00;;;;;;;5.65;2.88;;;;;;;18.30;39.22;99452.41;5001982;28;20038;-67
2024/03/10 08:23:25;;;;;;;5.00;3.05;;;;;;;18.41;39.07;99475.03;5001197;28;20586;-66
2024/03/10 08:25:53;;;;;;;5.43;3.13;;;;;;;18.40;38.69;99475.19;5001571;28;20033;-67
2024/03/10 08:28:19;;;;;;;4.50;2.95;;;;;;;18.31;38.73;99469.91;5013701;28;20025;-66
2024/03/10 08:30:45;;;;;;;6.00;3.22;;;;;;;18.39;39.05;99470.91;5004901;28;20026;-67
2024/03/10 08:33:10;;;;;;;5.43;3.40;;;;;;;18.40;39.04;99480.47;5009594;28;20033;-68
2024/03/10 08:35:37;;;;;;;5.00;2.90;;;;;;;18.27;39.28;99460.63;5003480;28;20119;-66
2024/03/10 08:38:05;;;;;;;5.53;3.40;;;;;;;18.41;39.20;99482.13;5010116;28;20556;-67
2024/03/10 08:40:34;;;;;;;5.10;3.10;;;;;;;18.31;39.29;99455.88;5012702;28;20478;-66
2024/03/10 08:42:59;;;;;;;4.70;3.00;;;;;;;18.40;39.31;99472.56;5008957;28;20025;-66
2024/03/10 08:45:25;;;;;;;5.82;3.47;;;;;;;18.39;39.31;99466.47;5006903;28;20577;-67
2024/03/10 08:47:51;;;;;;;5.45;3.10;;;;;;;18.41;39.16;99469.75;5012663;28;20037;-67
2024/03/10 08:50:17;;;;;;;4.60;2.83;;;;;;;18.42;39.68;99455.59;5003663;28;20050;-68
2024/03/10 08:52:43;;;;;;;5.15;3.22;;;;;;;18.30;39.50;99441.03;5005224;28;20300;-66
2024/03/10 08:55:15;;;;;;;4.93;2.92;;;;;;;18.42;39.42;99460.88;5015977;28;20033;-66
2024/03/10 08:57:41;;;;;;;4.80;2.92;;;;;;;18.36;39.61;99452.75;5006115;28;20037;-64
2024/03/10 09:00:08;;;;;;;4.97;3.15;;;;;;;18.43;39.61;99475.69;5014252;28;20661;-68
2024/03/10 09:02:33;;;;;;;4.78;3.10;;;;;;;18.40;39.67;99473.38;5006606;28;20112;-67
2024/03/10 09:04:59;;;;;;;4.63;3.08;;;;;;;18.43;39.89;99473.06;5008283;28;20117;-67
2024/03/10 09:07:25;;;;;;;5.22;3.08;;;;;;;18.42;39.89;99468.78;5007387;28;20029;-67
2024/03/10 09:09:50;;;;;;;5.13;3.00;;;;;;;18.36;39.95;99455.38;5008502;28;20541;-66
2024/03/10 09:12:17;;;;;;;4.95;2.97;;;;;;;18.47;40.00;99476.22;5012745;28;20083;-65
2024/03/10 09:14:43;;;;;;;5.20;2.92;;;;;;;18.40;40.10;99457.53;5006853;28;20069;-67
2024/03/10 09:17:08;;;;;;;5.50;3.10;;;;;;;18.39;39.99;99457.72;5008406;28;20077;-68
2024/03/10 09:19:34;;;;;;;5.35;3.20;;;;;;;18.37;40.39;99451.78;5012674;28;20087;-65
2024/03/10 09:21:59;;;;;;;4.72;2.70;;;;;;;18.48;40.28;99476.06;5017231;28;20033;-68
2024/03/10 09:24:26;;;;;;;4.47;2.67;;;;;;;18.41;40.33;99468.94;5006350;28;20036;-68
2024/03/10 09:26:52;;;;;;;4.47;2.80;;;;;;;18.38;40.47;99474.53;5009557;28;20376;-67
2024/03/10 09:29:18;;;;;;;4.43;2.78;;;;;;;18.48;40.44;99491.91;5019289;28;20311;-66
2024/03/10 09:31:44;;;;;;;6.63;3.10;;;;;;;18.51;40.43;99485.47;5010380;28;20147;-67
2024/03/10 09:34:11;;;;;;;4.70;3.00;;;;;;;18.47;40.56;99478.88;5018354;28;20487;-67
2024/03/10 09:36:37;;;;;;;6.38;3.25;;;;;;;18.54;40.39;99489.59;5018142;28;20147;-68
2024/03/10 09:39:03;;;;;;;5.22;3.17;;;;;;;18.42;40.41;99468.78;5010195;28;20495;-67
2024/03/10 09:41:29;;;;;;;4.78;2.70;;;;;;;18.54;40.34;99477.22;5013453;28;20037;-67
2024/03/10 09:43:56;;;;;;;5.10;2.80;;;;;;;18.44;40.56;99444.88;5001419;28;20483;-67
2024/03/10 09:46:22;;;;;;;4.63;2.83;;;;;;;18.55;40.64;99454.28;5001405;28;20061;-66
2024/03/10 09:48:49;;;;;;;4.55;2.80;;;;;;;18.45;40.77;99454.44;5000111;28;20046;-67
2024/03/10 09:51:15;;;;;;;4.97;2.83;;;;;;;18.39;40.77;99450.66;5001561;28;20068;-67
2024/03/10 09:53:42;;;;;;;4.88;2.70;;;;;;;18.55;40.86;99459.56;4998501;28;20026;-67
2024/03/10 09:56:09;;;;;;;5.47;3.33;;;;;;;18.54;40.87;99456.13;5000707;28;20034;-67
2024/03/10 09:58:44;;;;;;;5.60;2.70;;;;;;;18.34;40.85;99418.66;5000418;28;20553;-65
2024/03/10 10:01:15;;;;;;;4.90;3.08;;;;;;;18.53;40.79;99459.72;5001127;28;20038;-66
2024/03/10 10:03:43;;;;;;;4.38;2.65;;;;;;;18.55;40.70;99468.34;4999871;28;20030;-65
2024/03/10 10:06:11;;;;;;;4.68;2.72;;;;;;;18.54;40.80;99465.84;5000616;28;20034;-65
2024/03/10 10:08:36;;;;;;;4.68;2.90;;;;;;;18.58;40.63;99469.81;5001201;28;20037;-66
2024/03/10 10:11:02;;;;;;;4.82;2.85;;;;;;;18.56;40.34;99461.22;5011228;28;20092;-66
2024/03/10 10:13:28;;;;;;;6.20;3.17;;;;;;;18.46;40.60;99451.63;5008628;28;20399;-67
2024/03/10 10:15:54;;;;;;;4.45;2.90;;;;;;;18.55;40.59;99452.50;5008182;28;20049;-66
2024/03/10 10:18:21;;;;;;;5.82;3.10;;;;;;;18.53;40.51;99435.97;5009015;28;20032;-67
2024/03/10 10:20:53;;;;;;;5.38;3.08;;;;;;;18.49;40.55;99447.88;5012423;28;20033;-70
2024/03/10 10:23:26;;;;;;;4.32;2.58;;;;;;;18.55;40.83;99468.34;5003892;28;20097;-72
2024/03/10 10:26:05;;;;;;;5.32;3.40;;;;;;;18.46;40.49;99443.72;4998290;28;20935;-68
2024/03/10 10:28:32;;;;;;;5.68;3.28;;;;;;;18.49;40.43;99442.59;5006225;28;20034;-68
2024/03/10 10:31:08;;;;;;;4.97;3.08;;;;;;;18.51;40.47;99443.25;5011386;28;20037;-66
2024/03/10 10:33:34;;;;;;;7.63;3.10;;;;;;;18.62;40.33;99471.16;5012043;28;20052;-69
2024/03/10 10:36:05;;;;;;;5.05;3.10;;;;;;;18.49;40.19;99461.06;5008460;28;20033;-68
2024/03/10 10:38:37;;;;;;;6.35;3.40;;;;;;;18.63;40.36;99468.34;5007858;28;20026;-66
2024/03/10 10:41:05;;;;;;;5.97;2.70;;;;;;;18.56;40.40;99453.31;5005504;28;20038;-66
2024/03/10 10:43:33;;;;;;;5.40;3.00;;;;;;;18.50;40.67;99454.81;5016353;28;20138;-68
2024/03/10 10:45:59;;;;;;;5.35;3.00;;;;;;;18.58;40.54;99467.16;5005564;28;20113;-67
2024/03/10 10:48:25;;;;;;;5.22;3.00;;;;;;;18.68;40.73;99488.97;5010429;28;20613;-68
2024/03/10 10:50:51;;;;;;;4.90;3.33;;;;;;;18.67;40.27;99488.16;5016045;28;20029;-68
2024/03/10 10:53:17;;;;;;;5.68;3.45;;;;;;;18.59;39.95;99458.28;5003727;28;20038;-70
2024/03/10 10:55:44;;;;;;;5.03;3.30;;;;;;;18.59;40.21;99447.72;5006517;28;20034;-66
2024/03/10 10:58:18;;;;;;;6.15;3.58;;;;;;;18.59;40.45;99463.56;5011801;28;20030;-68
2024/03/10 11:00:54;;;;;;;7.07;2.88;;;;;;;18.71;40.50;99478.09;5007326;28;20033;-68
2024/03/10 11:03:28;;;;;;;5.93;2.92;;;;;;;18.71;40.37;99470.19;4999777;28;20041;-66
2024/03/10 11:06:02;;;;;;;5.18;3.33;;;;;;;18.73;40.30;99481.41;5007068;28;20392;-67
2024/03/10 11:08:28;;;;;;;5.18;3.00;;;;;;;18.73;40.44;99472.66;5017724;28;20558;-66
2024/03/10 11:10:54;;;;;;;4.95;2.70;;;;;;;18.63;40.40;99456.97;5009303;28;20034;-67
2024/03/10 11:13:22;;;;;;;5.35;2.97;;;;;;;18.66;40.68;99460.13;5003884;28;20034;-67
2024/03/10 11:16:09;;;;;;;6.05;3.20;;;;;;;18.72;40.37;99469.19;5013347;28;20041;-67
2024/03/10 11:18:38;;;;;;;6.68;2.80;;;;;;;18.68;40.58;99471.31;5010118;28;20030;-68
2024/03/10 11:21:12;;;;;;;5.90;3.08;;;;;;;18.68;40.78;99475.78;5005854;28;20462;-68
2024/03/10 11:23:46;;;;;;;5.60;3.00;;;;;;;18.66;40.58;99468.03;5010240;28;20116;-65
2024/03/10 11:26:15;;;;;;;4.70;2.73;;;;;;;18.59;40.51;99451.19;5015010;28;20029;-66
2024/03/10 11:28:54;;;;;;;6.00;3.20;;;;;;;18.63;40.53;99460.44;5010871;28;20275;-64
2024/03/10 11:31:23;;;;;;;5.13;3.30;;;;;;;18.72;40.77;99473.63;5000922;28;20310;-67
2024/03/10 11:33:59;;;;;;;4.60;2.72;;;;;;;18.72;40.66;99463.91;5009742;28;20045;-67
2024/03/10 11:36:32;;;;;;;7.05;2.97;;;;;;;18.68;40.53;99455.50;5009442;28;20099;-68
2024/03/10 11:39:01;;;;;;;4.63;2.60;;;;;;;18.59;40.54;99439.81;5008744;28;20036;-67
2024/03/10 11:41:26;;;;;;;4.43;2.58;;;;;;;18.71;40.63;99457.00;5006478;28;20075;-67
2024/03/10 11:43:52;;;;;;;4.80;2.50;;;;;;;18.57;40.73;99432.06;5019065;28;20469;-70
2024/03/10 11:46:19;;;;;;;4.43;2.40;;;;;;;18.65;40.73;99437.34;5010218;28;20520;-65
2024/03/10 11:48:48;;;;;;;5.53;2.67;;;;;;;18.68;40.86;99444.13;5002044;28;20144;-70
2024/03/10 11:51:13;;;;;;;4.55;2.83;;;;;;;18.62;40.65;99428.94;5002771;28;20079;-69
2024/03/10 11:53:40;;;;;;;4.78;2.88;;;;;;;18.66;40.74;99439.00;5006590;28;20124;-67